Anchorage, Kentucky
Current Conditions -  °F | °C
As of 4:53 AM on Saturday 29 Nov 2014 (Local Time) from KLOU Reporting Station
Clear Clear  
Wind Chill: 35°   Ceiling: Unl
Heat Index: 35°   Visibility: 10mi
Dew Point: 22°   Wind: 3mph
Humidity: 59%   Direction: 140°SE
Pressure: 30.04"   Gusts: NA
Location:  38.2621°N, 85.5415°W
Report Text: KLOU 290953Z AUTO 14003KT 10SM CLR 02/M06 A3004 RMK AO2 SLP175 T00171056
Loading
Personal Weather Stations






























Interactive Weather Map New forecast layout! Learn more

10-Day Weather Forecast

Advertisements
Track Severe Weather on mobile